sensor_id;sensor_type;location;lat;lon;timestamp;temperature;humidity
20070;DHT22;10195;50.868;4.382;2022-07-06T00:00:06;16.20;99.90
20070;DHT22;10195;50.868;4.382;2022-07-06T00:02:32;16.20;99.90
20070;DHT22;10195;50.868;4.382;2022-07-06T00:04:57;16.10;99.90
20070;DHT22;10195;50.868;4.382;2022-07-06T00:07:23;16.20;99.90
20070;DHT22;10195;50.868;4.382;2022-07-06T00:09:49;16.20;99.90
20070;DHT22;10195;50.868;4.382;2022-07-06T00:12:15;16.20;99.90
20070;DHT22;10195;50.868;4.382;2022-07-06T00:14:41;16.10;99.90
20070;DHT22;10195;50.868;4.382;2022-07-06T00:17:06;16.10;99.90
20070;DHT22;10195;50.868;4.382;2022-07-06T00:19:32;16.20;99.90
20070;DHT22;10195;50.868;4.382;2022-07-06T00:21:58;16.10;99.90
20070;DHT22;10195;50.868;4.382;2022-07-06T00:24:24;16.00;99.90
20070;DHT22;10195;50.868;4.382;2022-07-06T00:26:49;16.00;99.90
20070;DHT22;10195;50.868;4.382;2022-07-06T00:29:15;16.00;99.90
20070;DHT22;10195;50.868;4.382;2022-07-06T00:31:41;16.00;99.90
20070;DHT22;10195;50.868;4.382;2022-07-06T00:34:09;16.00;99.90
20070;DHT22;10195;50.868;4.382;2022-07-06T00:36:35;16.00;99.90
20070;DHT22;10195;50.868;4.382;2022-07-06T00:39:00;16.00;99.90
20070;DHT22;10195;50.868;4.382;2022-07-06T00:41:26;15.90;99.90
20070;DHT22;10195;50.868;4.382;2022-07-06T00:43:53;15.80;99.90
20070;DHT22;10195;50.868;4.382;2022-07-06T00:46:31;15.80;99.90
20070;DHT22;10195;50.868;4.382;2022-07-06T00:48:57;15.80;99.90
20070;DHT22;10195;50.868;4.382;2022-07-06T00:51:25;15.80;99.90
20070;DHT22;10195;50.868;4.382;2022-07-06T00:53:55;15.70;99.90
20070;DHT22;10195;50.868;4.382;2022-07-06T00:56:21;15.70;99.90
20070;DHT22;10195;50.868;4.382;2022-07-06T00:58:47;15.70;99.90
20070;DHT22;10195;50.868;4.382;2022-07-06T01:01:16;15.70;99.90
20070;DHT22;10195;50.868;4.382;2022-07-06T01:03:41;15.80;99.90
20070;DHT22;10195;50.868;4.382;2022-07-06T01:06:07;15.80;99.90
20070;DHT22;10195;50.868;4.382;2022-07-06T01:08:32;15.80;99.90
20070;DHT22;10195;50.868;4.382;2022-07-06T01:10:58;15.90;99.90
20070;DHT22;10195;50.868;4.382;2022-07-06T01:13:25;15.80;99.90
20070;DHT22;10195;50.868;4.382;2022-07-06T01:15:52;15.80;99.90
20070;DHT22;10195;50.868;4.382;2022-07-06T01:18:18;15.80;99.90
20070;DHT22;10195;50.868;4.382;2022-07-06T01:20:43;15.80;99.90
20070;DHT22;10195;50.868;4.382;2022-07-06T01:23:09;15.70;99.90
20070;DHT22;10195;50.868;4.382;2022-07-06T01:25:35;15.70;99.90
20070;DHT22;10195;50.868;4.382;2022-07-06T01:28:00;15.60;99.90
20070;DHT22;10195;50.868;4.382;2022-07-06T01:30:26;15.50;99.90
20070;DHT22;10195;50.868;4.382;2022-07-06T01:32:52;15.50;99.90
20070;DHT22;10195;50.868;4.382;2022-07-06T01:35:17;15.50;99.90
20070;DHT22;10195;50.868;4.382;2022-07-06T01:37:43;15.50;99.90
20070;DHT22;10195;50.868;4.382;2022-07-06T01:40:11;15.50;99.90
20070;DHT22;10195;50.868;4.382;2022-07-06T01:42:37;15.50;99.90
20070;DHT22;10195;50.868;4.382;2022-07-06T01:45:07;15.40;99.90
20070;DHT22;10195;50.868;4.382;2022-07-06T01:47:33;15.30;99.90
20070;DHT22;10195;50.868;4.382;2022-07-06T01:50:00;15.40;99.90
20070;DHT22;10195;50.868;4.382;2022-07-06T01:52:26;15.40;99.90
20070;DHT22;10195;50.868;4.382;2022-07-06T01:54:52;15.30;99.90
20070;DHT22;10195;50.868;4.382;2022-07-06T01:57:17;15.40;99.90
20070;DHT22;10195;50.868;4.382;2022-07-06T01:59:43;15.20;99.90
20070;DHT22;10195;50.868;4.382;2022-07-06T02:02:09;15.10;99.90
20070;DHT22;10195;50.868;4.382;2022-07-06T02:04:34;15.20;99.90
20070;DHT22;10195;50.868;4.382;2022-07-06T02:07:02;15.10;99.90
20070;DHT22;10195;50.868;4.382;2022-07-06T02:09:28;15.00;99.90
20070;DHT22;10195;50.868;4.382;2022-07-06T02:11:54;15.00;99.90
20070;DHT22;10195;50.868;4.382;2022-07-06T02:14:19;14.90;99.90
20070;DHT22;10195;50.868;4.382;2022-07-06T02:16:45;14.80;99.90
20070;DHT22;10195;50.868;4.382;2022-07-06T02:19:10;14.80;99.90
20070;DHT22;10195;50.868;4.382;2022-07-06T02:21:36;14.90;99.90
20070;DHT22;10195;50.868;4.382;2022-07-06T02:24:02;14.70;99.90
20070;DHT22;10195;50.868;4.382;2022-07-06T02:26:27;14.70;99.90
20070;DHT22;10195;50.868;4.382;2022-07-06T02:28:53;14.70;99.90
20070;DHT22;10195;50.868;4.382;2022-07-06T02:31:22;14.80;99.90
20070;DHT22;10195;50.868;4.382;2022-07-06T02:33:47;14.90;99.90
20070;DHT22;10195;50.868;4.382;2022-07-06T02:36:13;15.00;99.90
20070;DHT22;10195;50.868;4.382;2022-07-06T02:38:38;15.00;99.90
20070;DHT22;10195;50.868;4.382;2022-07-06T02:41:04;15.10;99.90
20070;DHT22;10195;50.868;4.382;2022-07-06T02:43:29;15.10;99.90
20070;DHT22;10195;50.868;4.382;2022-07-06T02:45:55;15.10;99.90
20070;DHT22;10195;50.868;4.382;2022-07-06T02:48:21;15.10;99.90
20070;DHT22;10195;50.868;4.382;2022-07-06T02:50:47;15.00;99.90
20070;DHT22;10195;50.868;4.382;2022-07-06T02:53:13;15.00;99.90
20070;DHT22;10195;50.868;4.382;2022-07-06T02:55:38;15.00;99.90
20070;DHT22;10195;50.868;4.382;2022-07-06T02:58:04;15.00;99.90
20070;DHT22;10195;50.868;4.382;2022-07-06T03:00:30;14.90;99.90
20070;DHT22;10195;50.868;4.382;2022-07-06T03:02:55;14.60;99.90
20070;DHT22;10195;50.868;4.382;2022-07-06T03:05:21;14.50;99.90
20070;DHT22;10195;50.868;4.382;2022-07-06T03:07:46;14.50;99.90
20070;DHT22;10195;50.868;4.382;2022-07-06T03:10:12;14.60;99.90
20070;DHT22;10195;50.868;4.382;2022-07-06T03:12:37;14.60;99.90
20070;DHT22;10195;50.868;4.382;2022-07-06T03:15:03;14.70;99.90
20070;DHT22;10195;50.868;4.382;2022-07-06T03:17:29;14.80;99.90
20070;DHT22;10195;50.868;4.382;2022-07-06T03:19:55;14.90;99.90
20070;DHT22;10195;50.868;4.382;2022-07-06T03:22:20;14.90;99.90
20070;DHT22;10195;50.868;4.382;2022-07-06T03:24:46;14.90;99.90
20070;DHT22;10195;50.868;4.382;2022-07-06T03:27:12;14.80;99.90
20070;DHT22;10195;50.868;4.382;2022-07-06T03:29:37;14.70;99.90
20070;DHT22;10195;50.868;4.382;2022-07-06T03:32:03;14.60;99.90
20070;DHT22;10195;50.868;4.382;2022-07-06T03:34:29;14.50;99.90
20070;DHT22;10195;50.868;4.382;2022-07-06T03:36:54;14.40;99.90
20070;DHT22;10195;50.868;4.382;2022-07-06T03:39:20;14.40;99.90
20070;DHT22;10195;50.868;4.382;2022-07-06T03:41:46;14.50;99.90
20070;DHT22;10195;50.868;4.382;2022-07-06T03:44:11;14.60;99.90
20070;DHT22;10195;50.868;4.382;2022-07-06T03:46:37;14.60;99.90
20070;DHT22;10195;50.868;4.382;2022-07-06T03:49:02;14.70;99.90
20070;DHT22;10195;50.868;4.382;2022-07-06T03:51:28;14.70;99.90
20070;DHT22;10195;50.868;4.382;2022-07-06T03:53:54;14.80;99.90
20070;DHT22;10195;50.868;4.382;2022-07-06T03:56:19;14.80;99.90
20070;DHT22;10195;50.868;4.382;2022-07-06T03:59:01;14.80;99.90
20070;DHT22;10195;50.868;4.382;2022-07-06T04:01:27;14.80;99.90
20070;DHT22;10195;50.868;4.382;2022-07-06T04:03:52;14.90;99.90
20070;DHT22;10195;50.868;4.382;2022-07-06T04:06:18;14.90;99.90
20070;DHT22;10195;50.868;4.382;2022-07-06T04:08:44;14.90;99.90
20070;DHT22;10195;50.868;4.382;2022-07-06T04:11:10;15.00;99.90
20070;DHT22;10195;50.868;4.382;2022-07-06T04:13:35;15.10;99.90
20070;DHT22;10195;50.868;4.382;2022-07-06T04:16:02;15.20;99.90
20070;DHT22;10195;50.868;4.382;2022-07-06T04:18:28;15.40;99.90
20070;DHT22;10195;50.868;4.382;2022-07-06T04:20:53;15.40;99.90
20070;DHT22;10195;50.868;4.382;2022-07-06T04:23:19;15.40;99.90
20070;DHT22;10195;50.868;4.382;2022-07-06T04:25:45;15.40;99.90
20070;DHT22;10195;50.868;4.382;2022-07-06T04:28:10;15.50;99.90
20070;DHT22;10195;50.868;4.382;2022-07-06T04:30:36;15.50;99.90
20070;DHT22;10195;50.868;4.382;2022-07-06T04:33:02;15.60;99.90
20070;DHT22;10195;50.868;4.382;2022-07-06T04:35:27;15.60;99.90
20070;DHT22;10195;50.868;4.382;2022-07-06T04:37:53;15.70;99.90
20070;DHT22;10195;50.868;4.382;2022-07-06T04:40:19;15.70;99.90
20070;DHT22;10195;50.868;4.382;2022-07-06T04:42:44;15.80;99.90
20070;DHT22;10195;50.868;4.382;2022-07-06T04:45:10;15.90;99.90
20070;DHT22;10195;50.868;4.382;2022-07-06T04:47:36;16.00;99.90
20070;DHT22;10195;50.868;4.382;2022-07-06T04:50:02;16.10;99.90
20070;DHT22;10195;50.868;4.382;2022-07-06T04:52:28;16.10;99.90
20070;DHT22;10195;50.868;4.382;2022-07-06T04:54:56;16.20;99.90
20070;DHT22;10195;50.868;4.382;2022-07-06T04:57:22;16.20;99.90
20070;DHT22;10195;50.868;4.382;2022-07-06T04:59:48;16.20;99.90
20070;DHT22;10195;50.868;4.382;2022-07-06T05:02:13;16.10;99.90
20070;DHT22;10195;50.868;4.382;2022-07-06T05:04:39;16.20;99.90
20070;DHT22;10195;50.868;4.382;2022-07-06T05:07:04;16.40;99.90
20070;DHT22;10195;50.868;4.382;2022-07-06T05:09:30;16.40;99.90
20070;DHT22;10195;50.868;4.382;2022-07-06T05:11:56;16.60;99.90
20070;DHT22;10195;50.868;4.382;2022-07-06T05:14:22;16.70;99.90
20070;DHT22;10195;50.868;4.382;2022-07-06T05:16:48;16.70;99.90
20070;DHT22;10195;50.868;4.382;2022-07-06T05:19:13;16.60;99.90
20070;DHT22;10195;50.868;4.382;2022-07-06T05:21:39;16.70;99.90
20070;DHT22;10195;50.868;4.382;2022-07-06T05:24:05;16.80;99.90
20070;DHT22;10195;50.868;4.382;2022-07-06T05:26:30;16.80;99.90
20070;DHT22;10195;50.868;4.382;2022-07-06T05:28:59;16.80;99.90
20070;DHT22;10195;50.868;4.382;2022-07-06T05:31:24;17.00;99.90
20070;DHT22;10195;50.868;4.382;2022-07-06T05:33:50;17.30;99.90
20070;DHT22;10195;50.868;4.382;2022-07-06T05:36:16;17.50;99.90
20070;DHT22;10195;50.868;4.382;2022-07-06T05:38:42;17.60;99.90
20070;DHT22;10195;50.868;4.382;2022-07-06T05:41:08;17.60;99.90
20070;DHT22;10195;50.868;4.382;2022-07-06T05:43:36;17.90;99.90
20070;DHT22;10195;50.868;4.382;2022-07-06T05:46:02;18.20;99.90
20070;DHT22;10195;50.868;4.382;2022-07-06T05:48:28;18.80;99.90
20070;DHT22;10195;50.868;4.382;2022-07-06T05:51:12;19.20;99.90
20070;DHT22;10195;50.868;4.382;2022-07-06T05:53:38;19.50;99.90
20070;DHT22;10195;50.868;4.382;2022-07-06T05:56:04;19.50;99.90
20070;DHT22;10195;50.868;4.382;2022-07-06T05:58:29;19.30;99.90
20070;DHT22;10195;50.868;4.382;2022-07-06T06:00:55;19.20;99.90
20070;DHT22;10195;50.868;4.382;2022-07-06T06:03:21;19.50;99.90
20070;DHT22;10195;50.868;4.382;2022-07-06T06:05:46;20.00;99.90
20070;DHT22;10195;50.868;4.382;2022-07-06T06:08:12;20.70;99.90
20070;DHT22;10195;50.868;4.382;2022-07-06T06:10:37;21.20;99.90
20070;DHT22;10195;50.868;4.382;2022-07-06T06:13:03;21.20;99.90
20070;DHT22;10195;50.868;4.382;2022-07-06T06:15:29;21.30;99.90
20070;DHT22;10195;50.868;4.382;2022-07-06T06:17:54;21.30;99.90
20070;DHT22;10195;50.868;4.382;2022-07-06T06:20:20;21.00;99.90
20070;DHT22;10195;50.868;4.382;2022-07-06T06:22:54;20.90;99.90
20070;DHT22;10195;50.868;4.382;2022-07-06T06:25:35;21.00;99.90
20070;DHT22;10195;50.868;4.382;2022-07-06T06:28:03;21.40;99.90
20070;DHT22;10195;50.868;4.382;2022-07-06T06:30:29;21.90;99.90
20070;DHT22;10195;50.868;4.382;2022-07-06T06:33:15;22.30;99.90
20070;DHT22;10195;50.868;4.382;2022-07-06T06:35:51;22.50;99.90
20070;DHT22;10195;50.868;4.382;2022-07-06T06:38:18;22.50;99.90
20070;DHT22;10195;50.868;4.382;2022-07-06T06:40:44;22.60;99.90
20070;DHT22;10195;50.868;4.382;2022-07-06T06:43:10;22.80;99.90
20070;DHT22;10195;50.868;4.382;2022-07-06T06:45:35;23.90;99.90
20070;DHT22;10195;50.868;4.382;2022-07-06T06:48:01;23.70;99.90
20070;DHT22;10195;50.868;4.382;2022-07-06T06:50:27;23.40;99.90
20070;DHT22;10195;50.868;4.382;2022-07-06T06:52:53;22.80;99.90
20070;DHT22;10195;50.868;4.382;2022-07-06T06:55:18;22.00;99.90
20070;DHT22;10195;50.868;4.382;2022-07-06T06:57:44;21.40;99.90
20070;DHT22;10195;50.868;4.382;2022-07-06T07:00:11;20.90;99.90
20070;DHT22;10195;50.868;4.382;2022-07-06T07:02:37;20.60;99.90
20070;DHT22;10195;50.868;4.382;2022-07-06T07:05:04;21.10;99.90
20070;DHT22;10195;50.868;4.382;2022-07-06T07:07:30;22.00;99.90
20070;DHT22;10195;50.868;4.382;2022-07-06T07:09:56;22.70;99.90
20070;DHT22;10195;50.868;4.382;2022-07-06T07:12:21;23.10;99.90
20070;DHT22;10195;50.868;4.382;2022-07-06T07:14:47;22.20;99.90
20070;DHT22;10195;50.868;4.382;2022-07-06T07:17:13;21.10;99.90
20070;DHT22;10195;50.868;4.382;2022-07-06T07:19:40;21.00;99.90
20070;DHT22;10195;50.868;4.382;2022-07-06T07:22:06;21.30;99.90
20070;DHT22;10195;50.868;4.382;2022-07-06T07:24:31;21.90;99.90
20070;DHT22;10195;50.868;4.382;2022-07-06T07:26:57;22.40;99.90
20070;DHT22;10195;50.868;4.382;2022-07-06T07:29:23;23.00;99.90
20070;DHT22;10195;50.868;4.382;2022-07-06T07:31:48;22.70;99.90
20070;DHT22;10195;50.868;4.382;2022-07-06T07:34:14;21.70;99.90
20070;DHT22;10195;50.868;4.382;2022-07-06T07:36:40;22.40;99.90
20070;DHT22;10195;50.868;4.382;2022-07-06T07:39:05;23.70;99.90
20070;DHT22;10195;50.868;4.382;2022-07-06T07:41:31;23.50;99.90
20070;DHT22;10195;50.868;4.382;2022-07-06T07:43:57;21.90;99.90
20070;DHT22;10195;50.868;4.382;2022-07-06T07:46:22;21.80;99.90
20070;DHT22;10195;50.868;4.382;2022-07-06T07:48:48;21.50;99.90
20070;DHT22;10195;50.868;4.382;2022-07-06T07:51:14;22.00;99.90
20070;DHT22;10195;50.868;4.382;2022-07-06T07:53:39;21.40;99.90
20070;DHT22;10195;50.868;4.382;2022-07-06T07:56:05;21.90;99.90
20070;DHT22;10195;50.868;4.382;2022-07-06T07:58:31;22.40;99.90
20070;DHT22;10195;50.868;4.382;2022-07-06T08:00:56;23.00;99.90
20070;DHT22;10195;50.868;4.382;2022-07-06T08:03:22;23.70;99.90
20070;DHT22;10195;50.868;4.382;2022-07-06T08:05:48;23.10;99.90
20070;DHT22;10195;50.868;4.382;2022-07-06T08:08:14;23.50;99.90
20070;DHT22;10195;50.868;4.382;2022-07-06T08:10:40;23.40;99.90
20070;DHT22;10195;50.868;4.382;2022-07-06T08:13:06;24.60;99.90
20070;DHT22;10195;50.868;4.382;2022-07-06T08:15:33;25.20;99.90
20070;DHT22;10195;50.868;4.382;2022-07-06T08:17:59;24.00;99.90
20070;DHT22;10195;50.868;4.382;2022-07-06T08:20:25;23.00;99.90
20070;DHT22;10195;50.868;4.382;2022-07-06T08:22:50;24.10;99.90
20070;DHT22;10195;50.868;4.382;2022-07-06T08:25:16;24.60;99.90
20070;DHT22;10195;50.868;4.382;2022-07-06T08:27:42;23.50;99.90
20070;DHT22;10195;50.868;4.382;2022-07-06T08:30:08;22.70;99.90
20070;DHT22;10195;50.868;4.382;2022-07-06T08:32:37;23.10;99.90
20070;DHT22;10195;50.868;4.382;2022-07-06T08:35:04;23.50;99.90
20070;DHT22;10195;50.868;4.382;2022-07-06T08:37:30;24.30;99.90
20070;DHT22;10195;50.868;4.382;2022-07-06T08:39:55;24.90;99.90
20070;DHT22;10195;50.868;4.382;2022-07-06T08:42:21;25.60;99.90
20070;DHT22;10195;50.868;4.382;2022-07-06T08:44:50;25.90;99.90
20070;DHT22;10195;50.868;4.382;2022-07-06T08:47:18;26.10;99.90
20070;DHT22;10195;50.868;4.382;2022-07-06T08:49:44;26.20;99.90
20070;DHT22;10195;50.868;4.382;2022-07-06T08:52:10;27.00;99.90
20070;DHT22;10195;50.868;4.382;2022-07-06T08:54:37;28.00;99.90
20070;DHT22;10195;50.868;4.382;2022-07-06T08:57:03;28.10;99.90
20070;DHT22;10195;50.868;4.382;2022-07-06T08:59:29;27.30;99.90
20070;DHT22;10195;50.868;4.382;2022-07-06T09:01:55;27.00;99.90
20070;DHT22;10195;50.868;4.382;2022-07-06T09:04:22;26.10;99.90
20070;DHT22;10195;50.868;4.382;2022-07-06T09:06:49;25.90;99.90
20070;DHT22;10195;50.868;4.382;2022-07-06T09:09:24;25.90;99.90
20070;DHT22;10195;50.868;4.382;2022-07-06T09:11:51;25.40;99.90
20070;DHT22;10195;50.868;4.382;2022-07-06T09:14:17;25.30;99.90
20070;DHT22;10195;50.868;4.382;2022-07-06T09:16:46;25.40;99.90
20070;DHT22;10195;50.868;4.382;2022-07-06T09:19:16;24.60;99.90
20070;DHT22;10195;50.868;4.382;2022-07-06T09:21:41;23.70;99.90
20070;DHT22;10195;50.868;4.382;2022-07-06T09:24:12;23.50;99.90
20070;DHT22;10195;50.868;4.382;2022-07-06T09:26:39;23.60;99.90
20070;DHT22;10195;50.868;4.382;2022-07-06T09:29:06;23.20;99.90
20070;DHT22;10195;50.868;4.382;2022-07-06T09:31:33;23.50;99.90
20070;DHT22;10195;50.868;4.382;2022-07-06T09:34:01;23.60;99.90
20070;DHT22;10195;50.868;4.382;2022-07-06T09:36:44;24.30;99.90
20070;DHT22;10195;50.868;4.382;2022-07-06T09:39:23;24.90;99.90
20070;DHT22;10195;50.868;4.382;2022-07-06T09:41:54;23.60;99.90
20070;DHT22;10195;50.868;4.382;2022-07-06T09:44:25;23.00;99.90
20070;DHT22;10195;50.868;4.382;2022-07-06T09:46:52;23.70;99.90
20070;DHT22;10195;50.868;4.382;2022-07-06T09:49:20;23.40;99.90
20070;DHT22;10195;50.868;4.382;2022-07-06T09:51:51;23.80;99.90
20070;DHT22;10195;50.868;4.382;2022-07-06T09:54:17;23.80;99.90
20070;DHT22;10195;50.868;4.382;2022-07-06T09:56:45;23.70;99.90
20070;DHT22;10195;50.868;4.382;2022-07-06T09:59:16;22.60;99.90
20070;DHT22;10195;50.868;4.382;2022-07-06T10:01:42;22.40;99.90
20070;DHT22;10195;50.868;4.382;2022-07-06T10:04:10;22.60;99.90
20070;DHT22;10195;50.868;4.382;2022-07-06T10:06:39;22.90;99.90
20070;DHT22;10195;50.868;4.382;2022-07-06T10:09:09;23.40;99.90
20070;DHT22;10195;50.868;4.382;2022-07-06T10:11:38;23.80;99.90
20070;DHT22;10195;50.868;4.382;2022-07-06T10:14:06;23.90;99.90
20070;DHT22;10195;50.868;4.382;2022-07-06T10:16:37;23.90;99.90
20070;DHT22;10195;50.868;4.382;2022-07-06T10:19:08;24.30;99.90
20070;DHT22;10195;50.868;4.382;2022-07-06T10:21:40;24.90;99.90
20070;DHT22;10195;50.868;4.382;2022-07-06T10:24:06;25.60;99.90
20070;DHT22;10195;50.868;4.382;2022-07-06T10:26:33;25.70;99.90
20070;DHT22;10195;50.868;4.382;2022-07-06T10:29:00;24.40;99.90
20070;DHT22;10195;50.868;4.382;2022-07-06T10:31:27;24.00;99.90
20070;DHT22;10195;50.868;4.382;2022-07-06T10:33:59;23.10;99.90
20070;DHT22;10195;50.868;4.382;2022-07-06T10:36:25;23.30;99.90
20070;DHT22;10195;50.868;4.382;2022-07-06T10:38:52;23.30;99.90
20070;DHT22;10195;50.868;4.382;2022-07-06T10:41:18;23.70;99.90
20070;DHT22;10195;50.868;4.382;2022-07-06T10:43:55;24.30;99.90
20070;DHT22;10195;50.868;4.382;2022-07-06T10:46:23;24.50;99.90
20070;DHT22;10195;50.868;4.382;2022-07-06T10:48:52;24.20;99.90
20070;DHT22;10195;50.868;4.382;2022-07-06T10:51:29;24.50;99.90
20070;DHT22;10195;50.868;4.382;2022-07-06T10:54:01;24.50;99.90
20070;DHT22;10195;50.868;4.382;2022-07-06T10:56:49;23.60;99.90
20070;DHT22;10195;50.868;4.382;2022-07-06T10:59:17;23.50;99.90
20070;DHT22;10195;50.868;4.382;2022-07-06T11:02:17;22.90;99.90
20070;DHT22;10195;50.868;4.382;2022-07-06T11:04:44;22.40;99.90
20070;DHT22;10195;50.868;4.382;2022-07-06T11:07:15;21.80;99.90
20070;DHT22;10195;50.868;4.382;2022-07-06T11:09:42;21.90;99.90
20070;DHT22;10195;50.868;4.382;2022-07-06T11:12:19;22.60;99.90
20070;DHT22;10195;50.868;4.382;2022-07-06T11:14:46;23.30;99.90
20070;DHT22;10195;50.868;4.382;2022-07-06T11:17:12;23.80;99.90
20070;DHT22;10195;50.868;4.382;2022-07-06T11:19:50;23.20;99.90
20070;DHT22;10195;50.868;4.382;2022-07-06T11:22:20;23.60;99.90
20070;DHT22;10195;50.868;4.382;2022-07-06T11:24:46;23.80;99.90
20070;DHT22;10195;50.868;4.382;2022-07-06T11:27:13;22.60;99.90
20070;DHT22;10195;50.868;4.382;2022-07-06T11:29:39;22.40;99.90
20070;DHT22;10195;50.868;4.382;2022-07-06T11:32:07;22.70;99.90
20070;DHT22;10195;50.868;4.382;2022-07-06T11:34:38;22.10;99.90
20070;DHT22;10195;50.868;4.382;2022-07-06T11:37:09;21.50;99.90
20070;DHT22;10195;50.868;4.382;2022-07-06T11:39:37;21.70;99.90
20070;DHT22;10195;50.868;4.382;2022-07-06T11:42:06;22.00;99.90
20070;DHT22;10195;50.868;4.382;2022-07-06T11:44:33;21.90;99.90
20070;DHT22;10195;50.868;4.382;2022-07-06T11:46:59;22.30;99.90
20070;DHT22;10195;50.868;4.382;2022-07-06T11:49:28;23.10;99.90
20070;DHT22;10195;50.868;4.382;2022-07-06T11:51:53;23.20;99.90
20070;DHT22;10195;50.868;4.382;2022-07-06T11:54:20;23.60;99.90
20070;DHT22;10195;50.868;4.382;2022-07-06T11:56:54;23.90;99.90
20070;DHT22;10195;50.868;4.382;2022-07-06T11:59:24;24.60;99.90
20070;DHT22;10195;50.868;4.382;2022-07-06T12:01:58;24.70;99.90
20070;DHT22;10195;50.868;4.382;2022-07-06T12:04:24;24.80;99.90
20070;DHT22;10195;50.868;4.382;2022-07-06T12:06:51;24.50;99.90
20070;DHT22;10195;50.868;4.382;2022-07-06T12:09:16;23.30;99.90
20070;DHT22;10195;50.868;4.382;2022-07-06T12:11:44;23.00;99.90
20070;DHT22;10195;50.868;4.382;2022-07-06T12:14:18;22.90;99.90
20070;DHT22;10195;50.868;4.382;2022-07-06T12:16:45;22.60;99.90
20070;DHT22;10195;50.868;4.382;2022-07-06T12:19:11;22.70;99.90
20070;DHT22;10195;50.868;4.382;2022-07-06T12:21:43;23.00;99.90
20070;DHT22;10195;50.868;4.382;2022-07-06T12:24:09;23.50;99.90
20070;DHT22;10195;50.868;4.382;2022-07-06T12:26:40;23.70;99.90
20070;DHT22;10195;50.868;4.382;2022-07-06T12:29:08;24.10;99.90
20070;DHT22;10195;50.868;4.382;2022-07-06T12:31:43;24.60;99.90
20070;DHT22;10195;50.868;4.382;2022-07-06T12:36:56;23.80;99.90
20070;DHT22;10195;50.868;4.382;2022-07-06T12:39:27;23.60;99.90
20070;DHT22;10195;50.868;4.382;2022-07-06T12:41:55;23.80;99.90
20070;DHT22;10195;50.868;4.382;2022-07-06T12:44:24;24.30;99.90
20070;DHT22;10195;50.868;4.382;2022-07-06T12:47:10;24.30;99.90
20070;DHT22;10195;50.868;4.382;2022-07-06T12:49:38;23.50;99.90
20070;DHT22;10195;50.868;4.382;2022-07-06T12:54:35;22.50;99.90
20070;DHT22;10195;50.868;4.382;2022-07-06T12:57:09;22.50;99.90
20070;DHT22;10195;50.868;4.382;2022-07-06T13:02:29;22.20;99.90
20070;DHT22;10195;50.868;4.382;2022-07-06T13:05:04;22.60;99.90
20070;DHT22;10195;50.868;4.382;2022-07-06T13:07:32;23.10;99.90
20070;DHT22;10195;50.868;4.382;2022-07-06T13:10:02;23.30;99.90
20070;DHT22;10195;50.868;4.382;2022-07-06T13:12:28;23.70;99.90
20070;DHT22;10195;50.868;4.382;2022-07-06T13:14:54;23.70;99.90
20070;DHT22;10195;50.868;4.382;2022-07-06T13:17:20;23.90;99.90
20070;DHT22;10195;50.868;4.382;2022-07-06T13:19:45;23.90;99.90
20070;DHT22;10195;50.868;4.382;2022-07-06T13:22:11;23.80;99.90
20070;DHT22;10195;50.868;4.382;2022-07-06T13:24:37;23.50;99.90
20070;DHT22;10195;50.868;4.382;2022-07-06T13:27:03;23.30;99.90
20070;DHT22;10195;50.868;4.382;2022-07-06T13:29:29;23.50;99.90
20070;DHT22;10195;50.868;4.382;2022-07-06T13:31:54;23.50;99.90
20070;DHT22;10195;50.868;4.382;2022-07-06T13:34:20;23.10;99.90
20070;DHT22;10195;50.868;4.382;2022-07-06T13:36:46;23.00;99.90
20070;DHT22;10195;50.868;4.382;2022-07-06T13:39:11;23.50;99.90
20070;DHT22;10195;50.868;4.382;2022-07-06T13:41:37;24.00;99.90
20070;DHT22;10195;50.868;4.382;2022-07-06T13:44:03;24.10;99.90
20070;DHT22;10195;50.868;4.382;2022-07-06T13:46:30;23.20;99.90
20070;DHT22;10195;50.868;4.382;2022-07-06T13:48:57;23.30;99.90
20070;DHT22;10195;50.868;4.382;2022-07-06T13:51:23;23.30;99.90
20070;DHT22;10195;50.868;4.382;2022-07-06T13:53:50;23.20;99.90
20070;DHT22;10195;50.868;4.382;2022-07-06T13:56:16;23.60;99.90
20070;DHT22;10195;50.868;4.382;2022-07-06T13:58:42;24.30;99.90
20070;DHT22;10195;50.868;4.382;2022-07-06T14:01:08;24.60;99.90
20070;DHT22;10195;50.868;4.382;2022-07-06T14:03:34;24.50;99.90
20070;DHT22;10195;50.868;4.382;2022-07-06T14:06:04;24.20;99.90
20070;DHT22;10195;50.868;4.382;2022-07-06T14:08:30;24.30;99.90
20070;DHT22;10195;50.868;4.382;2022-07-06T14:10:56;24.70;99.90
20070;DHT22;10195;50.868;4.382;2022-07-06T14:13:23;24.80;99.90
20070;DHT22;10195;50.868;4.382;2022-07-06T14:15:49;25.10;99.90
20070;DHT22;10195;50.868;4.382;2022-07-06T14:18:15;25.20;99.90
20070;DHT22;10195;50.868;4.382;2022-07-06T14:20:49;25.40;99.90
20070;DHT22;10195;50.868;4.382;2022-07-06T14:23:15;25.90;99.90
20070;DHT22;10195;50.868;4.382;2022-07-06T14:25:41;25.80;99.90
20070;DHT22;10195;50.868;4.382;2022-07-06T14:28:08;26.10;99.90
20070;DHT22;10195;50.868;4.382;2022-07-06T14:30:35;25.80;99.90
20070;DHT22;10195;50.868;4.382;2022-07-06T14:33:08;26.30;99.90
20070;DHT22;10195;50.868;4.382;2022-07-06T14:35:39;26.00;99.90
20070;DHT22;10195;50.868;4.382;2022-07-06T14:38:06;26.10;99.90
20070;DHT22;10195;50.868;4.382;2022-07-06T14:40:33;25.80;99.90
20070;DHT22;10195;50.868;4.382;2022-07-06T14:42:59;25.90;99.90
20070;DHT22;10195;50.868;4.382;2022-07-06T14:45:26;25.70;99.90
20070;DHT22;10195;50.868;4.382;2022-07-06T14:47:52;24.70;99.90
20070;DHT22;10195;50.868;4.382;2022-07-06T14:50:18;24.40;99.90
20070;DHT22;10195;50.868;4.382;2022-07-06T14:52:43;24.00;99.90
20070;DHT22;10195;50.868;4.382;2022-07-06T14:55:09;23.60;99.90
20070;DHT22;10195;50.868;4.382;2022-07-06T14:57:35;23.30;99.90
20070;DHT22;10195;50.868;4.382;2022-07-06T15:00:02;23.20;99.90
20070;DHT22;10195;50.868;4.382;2022-07-06T15:02:28;23.20;99.90
20070;DHT22;10195;50.868;4.382;2022-07-06T15:04:53;23.10;99.90
20070;DHT22;10195;50.868;4.382;2022-07-06T15:07:19;23.40;99.90
20070;DHT22;10195;50.868;4.382;2022-07-06T15:09:45;23.70;99.90
20070;DHT22;10195;50.868;4.382;2022-07-06T15:12:10;24.10;99.90
20070;DHT22;10195;50.868;4.382;2022-07-06T15:14:36;24.60;99.90
20070;DHT22;10195;50.868;4.382;2022-07-06T15:17:02;24.30;99.90
20070;DHT22;10195;50.868;4.382;2022-07-06T15:19:28;24.00;99.90
20070;DHT22;10195;50.868;4.382;2022-07-06T15:21:54;23.80;99.90
20070;DHT22;10195;50.868;4.382;2022-07-06T15:24:20;24.10;99.90
20070;DHT22;10195;50.868;4.382;2022-07-06T15:26:46;24.30;99.90
20070;DHT22;10195;50.868;4.382;2022-07-06T15:29:12;23.70;99.90
20070;DHT22;10195;50.868;4.382;2022-07-06T15:31:38;23.60;99.90
20070;DHT22;10195;50.868;4.382;2022-07-06T15:34:04;23.60;99.90
20070;DHT22;10195;50.868;4.382;2022-07-06T15:36:29;23.40;99.90